Elcho Island, Australia
Current Conditions -  °F | °C
As of 12:00 PM on Wednesday 26 Nov 2014 (Local Time) from YPGV Reporting Station
Broken Clouds Broken Clouds  
Wind Chill: 88°   Ceiling: 2400
Heat Index: 94°   Visibility: 6mi
Dew Point: 72°   Wind: 14mph
Humidity: 58%   Direction: 80°E
Pressure: 29.77"   Gusts: NA
Location:  12.02°S, 135.55°E
Report Text: YPGV 260300Z AUTO 08012KT 9999 // BKN024 BKN032 31/22 Q1008
Loading
Personal Weather Stations






























Interactive Weather Map New forecast layout! Learn more

10-Day Weather Forecast

Advertisements
Track Severe Weather on mobile